EXS14PF EGBB-LFMN
Flight info
| Callsign | EXS14PF |
|---|---|
| Flight time | N/A |
| Altitude | 37000 |
| Route | ADMEX Y321 EMKUK UL612 VEULE DCT KOTAP UM728 KETEX DCT KOTIS DCT KUKOR DCT UTUVA DCT LERGA DCT LIQID DCT LATAM DCT TUNUR DCT NISAR |
| Aircraft | B738/M-SDE2E3FGHIRWXY/LB1 |
Departure
| Time | 2026-05-06 17:38 |
|---|---|
| Airport | Birmingham Airport (EGBB) |
Arrival
| Time | N/A |
|---|---|
| Airport | Nice-Côte d'Azur Airport (LFMN) |
| Time | Latitude | Longitude | Altitude | Speed | Heading |
|---|---|---|---|---|---|
| 2026-05-06 17:24 | 52.45037 | -1.73322 | 323 ft | 0 kts | 326° |
| 2026-05-06 17:28 | 52.45036 | -1.73320 | 323 ft | 2 kts | 326° |
| 2026-05-06 17:29 | 52.45018 | -1.73301 | 320 ft | 4 kts | 322° |
| 2026-05-06 17:29 | 52.45007 | -1.73270 | 321 ft | 4 kts | 263° |
| 2026-05-06 17:29 | 52.45016 | -1.73231 | 321 ft | 4 kts | 236° |
| 2026-05-06 17:29 | 52.45009 | -1.73247 | 319 ft | 4 kts | 236° |
| 2026-05-06 17:30 | 52.45003 | -1.73261 | 321 ft | 0 kts | 236° |
| 2026-05-06 17:32 | 52.45000 | -1.73268 | 322 ft | 1 kts | 235° |
| 2026-05-06 17:33 | 52.44995 | -1.73280 | 322 ft | 1 kts | 233° |
| 2026-05-06 17:33 | 52.44989 | -1.73292 | 321 ft | 1 kts | 234° |
| 2026-05-06 17:33 | 52.44984 | -1.73305 | 321 ft | 2 kts | 234° |
| 2026-05-06 17:33 | 52.44976 | -1.73325 | 323 ft | 3 kts | 236° |
| 2026-05-06 17:34 | 52.44963 | -1.73355 | 323 ft | 3 kts | 239° |
| 2026-05-06 17:34 | 52.44950 | -1.73390 | 323 ft | 5 kts | 236° |
| 2026-05-06 17:34 | 52.44925 | -1.73452 | 322 ft | 8 kts | 237° |
| 2026-05-06 17:34 | 52.44901 | -1.73534 | 322 ft | 8 kts | 250° |
| 2026-05-06 17:35 | 52.44878 | -1.73613 | 323 ft | 8 kts | 241° |
| 2026-05-06 17:35 | 52.44841 | -1.73671 | 323 ft | 7 kts | 207° |
| 2026-05-06 17:35 | 52.44791 | -1.73701 | 321 ft | 8 kts | 197° |
| 2026-05-06 17:36 | 52.44691 | -1.73835 | 326 ft | 10 kts | 231° |
| 2026-05-06 17:36 | 52.44645 | -1.73934 | 326 ft | 12 kts | 239° |
| 2026-05-06 17:36 | 52.44648 | -1.73988 | 326 ft | 2 kts | 326° |
| 2026-05-06 17:36 | 52.44664 | -1.74002 | 325 ft | 3 kts | 334° |
| 2026-05-06 17:37 | 52.44669 | -1.74007 | 325 ft | 0 kts | 327° |
| 2026-05-06 17:37 | 52.44670 | -1.74008 | 325 ft | 1 kts | 327° |
| 2026-05-06 17:37 | 52.44759 | -1.74106 | 324 ft | 50 kts | 326° |
| 2026-05-06 17:37 | 52.45282 | -1.74685 | 324 ft | 130 kts | 326° |
| 2026-05-06 17:38 | 52.46204 | -1.75717 | 514 ft | 179 kts | 326° |
| 2026-05-06 17:38 | 52.47205 | -1.77021 | 1516 ft | 191 kts | 319° |
| 2026-05-06 17:38 | 52.48195 | -1.78592 | 2412 ft | 201 kts | 317° |
| 2026-05-06 17:38 | 52.49337 | -1.80086 | 2834 ft | 217 kts | 335° |
| 2026-05-06 17:39 | 52.50814 | -1.80361 | 3232 ft | 218 kts | 14° |
| 2026-05-06 17:39 | 52.52165 | -1.79358 | 3890 ft | 208 kts | 34° |
| 2026-05-06 17:39 | 52.53166 | -1.77758 | 4612 ft | 200 kts | 54° |
| 2026-05-06 17:39 | 52.53729 | -1.75604 | 4848 ft | 217 kts | 78° |
| 2026-05-06 17:40 | 52.53721 | -1.73029 | 5070 ft | 234 kts | 97° |
| 2026-05-06 17:40 | 52.53415 | -1.70351 | 5515 ft | 242 kts | 100° |
| 2026-05-06 17:40 | 52.52994 | -1.67682 | 6187 ft | 244 kts | 114° |
| 2026-05-06 17:40 | 52.51939 | -1.65471 | 6708 ft | 251 kts | 136° |
| 2026-05-06 17:41 | 52.50632 | -1.63395 | 6934 ft | 273 kts | 135° |
| 2026-05-06 17:41 | 52.49242 | -1.61167 | 7409 ft | 283 kts | 135° |
| 2026-05-06 17:41 | 52.47820 | -1.58875 | 8019 ft | 288 kts | 135° |
| 2026-05-06 17:41 | 52.46388 | -1.56564 | 8771 ft | 290 kts | 136° |
| 2026-05-06 17:42 | 52.44769 | -1.54560 | 9431 ft | 294 kts | 148° |
| 2026-05-06 17:42 | 52.42990 | -1.52858 | 10115 ft | 298 kts | 150° |
| 2026-05-06 17:42 | 52.41152 | -1.51133 | 10463 ft | 315 kts | 150° |
| 2026-05-06 17:42 | 52.39196 | -1.49248 | 10606 ft | 337 kts | 149° |
| 2026-05-06 17:43 | 52.37128 | -1.47223 | 10896 ft | 353 kts | 150° |
| 2026-05-06 17:43 | 52.34846 | -1.45700 | 11484 ft | 356 kts | 169° |
| 2026-05-06 17:43 | 52.32408 | -1.44993 | 12238 ft | 357 kts | 172° |
| 2026-05-06 17:43 | 52.29937 | -1.44338 | 12883 ft | 363 kts | 172° |
| 2026-05-06 17:44 | 52.27444 | -1.43680 | 13584 ft | 366 kts | 172° |
| 2026-05-06 17:44 | 52.24907 | -1.42997 | 14277 ft | 369 kts | 172° |
| 2026-05-06 17:44 | 52.22364 | -1.42300 | 14953 ft | 372 kts | 171° |
| 2026-05-06 17:44 | 52.19803 | -1.41588 | 15634 ft | 375 kts | 171° |
| 2026-05-06 17:45 | 52.17222 | -1.40865 | 16314 ft | 378 kts | 171° |
| 2026-05-06 17:45 | 52.14615 | -1.40133 | 16986 ft | 381 kts | 171° |
| 2026-05-06 17:45 | 52.11991 | -1.39397 | 17647 ft | 385 kts | 171° |
| 2026-05-06 17:45 | 52.09343 | -1.38654 | 18299 ft | 388 kts | 171° |
| 2026-05-06 17:46 | 52.06667 | -1.37904 | 18864 ft | 391 kts | 172° |
| 2026-05-06 17:46 | 52.03976 | -1.37151 | 19442 ft | 394 kts | 172° |
| 2026-05-06 17:46 | 52.01267 | -1.36394 | 19984 ft | 397 kts | 172° |
| 2026-05-06 17:46 | 51.98544 | -1.35563 | 20523 ft | 401 kts | 167° |
| 2026-05-06 17:47 | 51.95896 | -1.34104 | 21066 ft | 405 kts | 156° |
| 2026-05-06 17:47 | 51.93349 | -1.32090 | 21609 ft | 409 kts | 154° |
| 2026-05-06 17:47 | 51.90804 | -1.29987 | 22123 ft | 412 kts | 154° |
| 2026-05-06 17:47 | 51.88241 | -1.27862 | 22637 ft | 415 kts | 154° |
| 2026-05-06 17:48 | 51.85655 | -1.25737 | 23138 ft | 419 kts | 154° |
| 2026-05-06 17:48 | 51.83042 | -1.23614 | 23628 ft | 422 kts | 155° |
| 2026-05-06 17:48 | 51.80410 | -1.21494 | 24048 ft | 424 kts | 155° |
| 2026-05-06 17:48 | 51.77770 | -1.19345 | 24476 ft | 426 kts | 153° |
| 2026-05-06 17:49 | 51.75164 | -1.17016 | 24885 ft | 429 kts | 152° |
| 2026-05-06 17:49 | 51.72578 | -1.14583 | 25286 ft | 432 kts | 151° |
| 2026-05-06 17:49 | 51.69988 | -1.12107 | 25686 ft | 434 kts | 151° |
| 2026-05-06 17:49 | 51.67384 | -1.09619 | 26077 ft | 436 kts | 151° |
| 2026-05-06 17:50 | 51.64761 | -1.07132 | 26460 ft | 439 kts | 151° |
| 2026-05-06 17:50 | 51.62121 | -1.04649 | 26817 ft | 441 kts | 152° |
| 2026-05-06 17:50 | 51.59458 | -1.02161 | 27183 ft | 443 kts | 152° |
| 2026-05-06 17:50 | 51.56783 | -0.99674 | 27549 ft | 446 kts | 152° |
| 2026-05-06 17:51 | 51.54096 | -0.97184 | 27895 ft | 448 kts | 152° |
| 2026-05-06 17:51 | 51.51381 | -0.94673 | 28241 ft | 450 kts | 152° |
| 2026-05-06 17:51 | 51.48659 | -0.92160 | 28567 ft | 452 kts | 152° |
| 2026-05-06 17:51 | 51.45924 | -0.89637 | 28891 ft | 455 kts | 152° |
| 2026-05-06 17:52 | 51.43175 | -0.87105 | 29213 ft | 457 kts | 152° |
| 2026-05-06 17:52 | 51.40414 | -0.84566 | 29526 ft | 459 kts | 152° |
| 2026-05-06 17:52 | 51.37640 | -0.82017 | 29831 ft | 461 kts | 152° |
| 2026-05-06 17:52 | 51.34849 | -0.79456 | 30119 ft | 463 kts | 152° |
| 2026-05-06 17:53 | 51.32051 | -0.76893 | 30402 ft | 463 kts | 152° |
| 2026-05-06 17:53 | 51.29262 | -0.74340 | 30801 ft | 461 kts | 152° |
| 2026-05-06 17:53 | 51.26485 | -0.71803 | 31249 ft | 458 kts | 152° |
| 2026-05-06 17:53 | 51.23732 | -0.69290 | 31701 ft | 455 kts | 152° |
| 2026-05-06 17:54 | 51.20989 | -0.66790 | 32091 ft | 453 kts | 152° |
| 2026-05-06 17:54 | 51.18259 | -0.64306 | 32415 ft | 453 kts | 152° |
| 2026-05-06 17:54 | 51.15520 | -0.61817 | 32694 ft | 453 kts | 152° |
| 2026-05-06 17:54 | 51.12783 | -0.59333 | 33026 ft | 452 kts | 152° |
| 2026-05-06 17:55 | 51.10049 | -0.56855 | 33366 ft | 451 kts | 152° |
| 2026-05-06 17:55 | 51.07327 | -0.54391 | 33682 ft | 450 kts | 152° |
| 2026-05-06 17:55 | 51.04635 | -0.51958 | 33973 ft | 450 kts | 152° |
| 2026-05-06 17:55 | 51.01880 | -0.49471 | 34223 ft | 450 kts | 152° |
| 2026-05-06 17:56 | 50.99158 | -0.47019 | 34441 ft | 450 kts | 152° |
| 2026-05-06 17:56 | 50.96430 | -0.44566 | 34675 ft | 450 kts | 152° |
| 2026-05-06 17:56 | 50.93701 | -0.42115 | 34904 ft | 450 kts | 152° |
| 2026-05-06 17:56 | 50.90969 | -0.39664 | 34957 ft | 454 kts | 152° |
| 2026-05-06 17:57 | 50.85459 | -0.34732 | 34963 ft | 455 kts | 152° |
| 2026-05-06 17:57 | 50.79982 | -0.29840 | 34957 ft | 449 kts | 152° |
| 2026-05-06 17:58 | 50.74552 | -0.25004 | 34967 ft | 447 kts | 152° |
| 2026-05-06 17:58 | 50.69131 | -0.20189 | 34969 ft | 447 kts | 152° |
| 2026-05-06 17:59 | 50.63708 | -0.15386 | 34970 ft | 447 kts | 152° |
| 2026-05-06 17:59 | 50.58284 | -0.10594 | 34970 ft | 447 kts | 152° |
| 2026-05-06 18:00 | 50.52849 | -0.05806 | 34978 ft | 448 kts | 152° |
| 2026-05-06 18:00 | 50.47391 | -0.01009 | 34969 ft | 450 kts | 152° |
| 2026-05-06 18:01 | 50.42021 | 0.04064 | 34966 ft | 452 kts | 147° |
| 2026-05-06 18:01 | 50.36846 | 0.09563 | 34978 ft | 453 kts | 147° |
| 2026-05-06 18:02 | 50.31599 | 0.15039 | 34969 ft | 454 kts | 147° |
| 2026-05-06 18:02 | 50.26328 | 0.20484 | 34967 ft | 454 kts | 147° |
| 2026-05-06 18:03 | 50.21049 | 0.25934 | 34960 ft | 455 kts | 147° |
| 2026-05-06 18:03 | 50.15767 | 0.31369 | 34966 ft | 455 kts | 147° |
| 2026-05-06 18:04 | 50.10482 | 0.36785 | 34968 ft | 455 kts | 147° |
| 2026-05-06 18:04 | 50.05197 | 0.42187 | 34969 ft | 454 kts | 147° |
| 2026-05-06 18:05 | 49.99913 | 0.47576 | 34975 ft | 454 kts | 147° |
| 2026-05-06 18:05 | 49.94632 | 0.52948 | 34961 ft | 453 kts | 147° |
| 2026-05-06 18:06 | 49.89358 | 0.58299 | 34962 ft | 453 kts | 147° |
| 2026-05-06 18:06 | 49.84093 | 0.63663 | 34971 ft | 452 kts | 146° |
| 2026-05-06 18:07 | 49.78964 | 0.69306 | 34972 ft | 452 kts | 144° |
| 2026-05-06 18:07 | 49.73871 | 0.75032 | 34968 ft | 452 kts | 144° |
| 2026-05-06 18:08 | 49.68774 | 0.80705 | 34966 ft | 452 kts | 144° |
| 2026-05-06 18:08 | 49.63645 | 0.86357 | 34966 ft | 452 kts | 144° |
| 2026-05-06 18:09 | 49.58515 | 0.91981 | 34969 ft | 453 kts | 144° |
| 2026-05-06 18:09 | 49.53374 | 0.97601 | 34968 ft | 453 kts | 144° |
| 2026-05-06 18:10 | 49.48232 | 1.03208 | 34961 ft | 453 kts | 144° |
| 2026-05-06 18:10 | 49.43084 | 1.08808 | 34971 ft | 454 kts | 145° |
| 2026-05-06 18:11 | 49.37928 | 1.14403 | 34970 ft | 454 kts | 145° |
| 2026-05-06 18:11 | 49.32766 | 1.19989 | 34959 ft | 454 kts | 145° |
| 2026-05-06 18:12 | 49.27644 | 1.25518 | 34979 ft | 454 kts | 145° |
| 2026-05-06 18:12 | 49.22471 | 1.31086 | 34958 ft | 454 kts | 145° |
| 2026-05-06 18:13 | 49.17304 | 1.36634 | 34963 ft | 454 kts | 145° |
| 2026-05-06 18:13 | 49.12130 | 1.42175 | 34965 ft | 454 kts | 145° |
| 2026-05-06 18:14 | 49.06961 | 1.47696 | 34959 ft | 454 kts | 145° |
| 2026-05-06 18:14 | 49.01789 | 1.53208 | 34955 ft | 453 kts | 145° |
| 2026-05-06 18:15 | 48.96618 | 1.58702 | 34966 ft | 453 kts | 145° |
| 2026-05-06 18:15 | 48.91451 | 1.64179 | 34948 ft | 453 kts | 145° |
| 2026-05-06 18:16 | 48.86284 | 1.69642 | 34942 ft | 452 kts | 145° |
| 2026-05-06 18:16 | 48.81121 | 1.75086 | 34948 ft | 452 kts | 145° |
| 2026-05-06 18:17 | 48.75951 | 1.80524 | 34949 ft | 452 kts | 146° |
| 2026-05-06 18:17 | 48.70790 | 1.85939 | 34946 ft | 451 kts | 146° |
| 2026-05-06 18:18 | 48.65620 | 1.91348 | 34949 ft | 451 kts | 146° |
| 2026-05-06 18:18 | 48.60458 | 1.96737 | 34942 ft | 451 kts | 146° |
| 2026-05-06 18:19 | 48.55287 | 2.02122 | 34934 ft | 451 kts | 146° |
| 2026-05-06 18:19 | 48.50120 | 2.07488 | 34937 ft | 451 kts | 146° |
| 2026-05-06 18:20 | 48.45821 | 2.11942 | 34926 ft | 451 kts | 146° |
| 2026-05-06 18:20 | 48.39775 | 2.18189 | 34920 ft | 451 kts | 146° |
| 2026-05-06 18:21 | 48.34605 | 2.23520 | 34927 ft | 450 kts | 146° |
| 2026-05-06 18:21 | 48.29400 | 2.28743 | 34913 ft | 450 kts | 152° |
| 2026-05-06 18:22 | 48.24604 | 2.31672 | 34919 ft | 447 kts | 166° |
| 2026-05-06 18:22 | 48.18571 | 2.33923 | 34919 ft | 447 kts | 166° |
| 2026-05-06 18:23 | 48.12551 | 2.36318 | 34924 ft | 448 kts | 163° |
| 2026-05-06 18:23 | 48.06625 | 2.39205 | 34939 ft | 448 kts | 162° |
| 2026-05-06 18:24 | 48.00723 | 2.42220 | 34926 ft | 448 kts | 161° |
| 2026-05-06 18:24 | 47.94814 | 2.45199 | 34942 ft | 448 kts | 162° |
| 2026-05-06 18:25 | 47.88897 | 2.48140 | 34939 ft | 448 kts | 162° |
| 2026-05-06 18:25 | 47.82975 | 2.51064 | 34935 ft | 448 kts | 162° |
| 2026-05-06 18:26 | 47.77051 | 2.53982 | 34937 ft | 448 kts | 162° |
| 2026-05-06 18:26 | 47.71130 | 2.56893 | 34926 ft | 448 kts | 162° |
| 2026-05-06 18:27 | 47.65209 | 2.59797 | 34933 ft | 448 kts | 162° |
| 2026-05-06 18:27 | 47.59285 | 2.62696 | 34929 ft | 448 kts | 162° |
| 2026-05-06 18:28 | 47.53362 | 2.65588 | 34931 ft | 448 kts | 162° |
| 2026-05-06 18:28 | 47.47440 | 2.68472 | 34931 ft | 448 kts | 162° |
| 2026-05-06 18:29 | 47.41520 | 2.71348 | 34929 ft | 448 kts | 162° |
| 2026-05-06 18:29 | 47.35601 | 2.74217 | 34938 ft | 448 kts | 162° |
| 2026-05-06 18:30 | 47.29679 | 2.77082 | 34929 ft | 448 kts | 162° |
| 2026-05-06 18:30 | 47.23763 | 2.79943 | 34937 ft | 448 kts | 163° |
| 2026-05-06 18:31 | 47.17839 | 2.82774 | 34939 ft | 448 kts | 163° |
| 2026-05-06 18:31 | 47.11915 | 2.85612 | 34937 ft | 448 kts | 163° |
| 2026-05-06 18:32 | 47.05994 | 2.88443 | 34938 ft | 448 kts | 163° |
| 2026-05-06 18:32 | 47.00108 | 2.91248 | 34944 ft | 448 kts | 163° |
| 2026-05-06 18:33 | 46.94181 | 2.94066 | 34945 ft | 448 kts | 163° |
| 2026-05-06 18:33 | 46.88247 | 2.96881 | 34935 ft | 448 kts | 163° |
| 2026-05-06 18:34 | 46.82308 | 2.99691 | 34936 ft | 449 kts | 163° |
| 2026-05-06 18:34 | 46.76372 | 3.02493 | 34941 ft | 449 kts | 163° |
| 2026-05-06 18:35 | 46.70427 | 3.05292 | 34938 ft | 449 kts | 163° |
| 2026-05-06 18:35 | 46.64481 | 3.08086 | 34939 ft | 449 kts | 163° |
| 2026-05-06 18:36 | 46.58536 | 3.10873 | 34933 ft | 449 kts | 163° |
| 2026-05-06 18:36 | 46.52592 | 3.13677 | 34930 ft | 449 kts | 162° |
| 2026-05-06 18:37 | 46.46729 | 3.16807 | 34936 ft | 450 kts | 160° |
| 2026-05-06 18:37 | 46.40864 | 3.20047 | 34935 ft | 450 kts | 160° |
| 2026-05-06 18:38 | 46.35005 | 3.23232 | 34937 ft | 450 kts | 161° |
| 2026-05-06 18:38 | 46.29131 | 3.26384 | 34936 ft | 450 kts | 161° |
| 2026-05-06 18:39 | 46.23259 | 3.29519 | 34939 ft | 450 kts | 161° |
| 2026-05-06 18:40 | 46.14451 | 3.34211 | 34939 ft | 450 kts | 161° |
| 2026-05-06 18:40 | 46.08580 | 3.37329 | 34939 ft | 449 kts | 161° |
| 2026-05-06 18:41 | 46.02714 | 3.40439 | 34937 ft | 449 kts | 161° |
| 2026-05-06 18:41 | 45.96851 | 3.43539 | 34939 ft | 449 kts | 161° |
| 2026-05-06 18:42 | 45.90990 | 3.46632 | 34938 ft | 449 kts | 161° |
| 2026-05-06 18:42 | 45.85121 | 3.49680 | 34933 ft | 448 kts | 163° |
| 2026-05-06 18:43 | 45.79177 | 3.52300 | 34934 ft | 447 kts | 166° |
| 2026-05-06 18:43 | 45.73213 | 3.54788 | 34931 ft | 446 kts | 166° |
| 2026-05-06 18:44 | 45.67306 | 3.57287 | 34933 ft | 446 kts | 165° |
| 2026-05-06 18:44 | 45.61325 | 3.59844 | 34929 ft | 446 kts | 166° |
| 2026-05-06 18:45 | 45.55427 | 3.62370 | 34929 ft | 445 kts | 166° |
| 2026-05-06 18:45 | 45.49498 | 3.64902 | 34931 ft | 445 kts | 166° |
| 2026-05-06 18:46 | 45.43567 | 3.67427 | 34925 ft | 445 kts | 166° |
| 2026-05-06 18:46 | 45.37600 | 3.69962 | 34931 ft | 444 kts | 166° |
| 2026-05-06 18:47 | 45.31716 | 3.72457 | 34930 ft | 444 kts | 166° |
| 2026-05-06 18:47 | 45.26098 | 3.76070 | 34938 ft | 451 kts | 145° |
| 2026-05-06 18:47 | 45.23796 | 3.79114 | 34933 ft | 456 kts | 132° |
| 2026-05-06 18:48 | 45.21985 | 3.82798 | 34948 ft | 458 kts | 124° |
| 2026-05-06 18:48 | 45.18648 | 3.90521 | 34936 ft | 459 kts | 124° |
| 2026-05-06 18:49 | 45.15232 | 3.98179 | 34934 ft | 460 kts | 126° |
| 2026-05-06 18:49 | 45.11749 | 4.05783 | 34930 ft | 461 kts | 126° |
| 2026-05-06 18:50 | 45.08249 | 4.13382 | 34927 ft | 461 kts | 126° |
| 2026-05-06 18:50 | 45.04747 | 4.20985 | 34941 ft | 462 kts | 126° |
| 2026-05-06 18:51 | 45.00835 | 4.28100 | 34941 ft | 457 kts | 136° |
| 2026-05-06 18:51 | 44.96499 | 4.34660 | 34928 ft | 457 kts | 137° |
| 2026-05-06 18:52 | 44.92142 | 4.41227 | 34912 ft | 458 kts | 136° |
| 2026-05-06 18:52 | 44.87821 | 4.47811 | 34894 ft | 452 kts | 136° |
| 2026-05-06 18:52 | 44.85729 | 4.51017 | 34889 ft | 436 kts | 136° |
| 2026-05-06 18:53 | 44.83713 | 4.54105 | 34907 ft | 422 kts | 137° |
| 2026-05-06 18:53 | 44.81754 | 4.57099 | 34840 ft | 410 kts | 137° |
| 2026-05-06 18:53 | 44.79835 | 4.60022 | 34577 ft | 404 kts | 137° |
| 2026-05-06 18:53 | 44.77929 | 4.62916 | 34200 ft | 403 kts | 137° |
| 2026-05-06 18:54 | 44.76016 | 4.65816 | 33943 ft | 406 kts | 138° |
| 2026-05-06 18:54 | 44.72114 | 4.71392 | 33816 ft | 396 kts | 141° |
| 2026-05-06 18:54 | 44.70242 | 4.74252 | 31981 ft | 415 kts | 131° |